createdAt,value
2018-11-04T00:02:56.656Z,8.27
2018-11-04T00:05:59.711Z,7.90
2018-11-04T00:09:02.755Z,8.47
2018-11-04T00:12:05.810Z,7.47
2018-11-04T00:15:10.100Z,7.10
2018-11-04T00:18:13.156Z,6.77
2018-11-04T00:21:16.303Z,6.53
2018-11-04T00:24:19.364Z,6.50
2018-11-04T00:27:22.469Z,5.80
2018-11-04T00:30:25.533Z,6.00
2018-11-04T00:33:28.617Z,6.30
2018-11-04T00:36:31.659Z,5.67
2018-11-04T00:39:34.696Z,5.93
2018-11-04T00:42:38.041Z,5.50
2018-11-04T00:45:41.137Z,5.70
2018-11-04T00:48:44.187Z,5.63
2018-11-04T00:51:47.239Z,5.27
2018-11-04T00:54:50.271Z,5.53
2018-11-04T00:57:53.314Z,5.00
2018-11-04T01:00:56.392Z,5.60
2018-11-04T01:03:59.565Z,5.03
2018-11-04T01:07:02.623Z,4.67
2018-11-04T01:10:06.587Z,4.70
2018-11-04T01:13:09.695Z,4.60
2018-11-04T01:16:12.806Z,4.40
2018-11-04T01:19:15.886Z,4.57
2018-11-04T01:22:18.969Z,4.30
2018-11-04T01:25:22.126Z,4.50
2018-11-04T01:28:25.178Z,4.67
2018-11-04T01:31:28.242Z,4.73
2018-11-04T01:34:31.335Z,4.20
2018-11-04T01:37:34.427Z,4.03
2018-11-04T01:40:37.471Z,4.23
2018-11-04T01:43:40.579Z,4.20
2018-11-04T01:46:43.751Z,4.10
2018-11-04T01:49:46.822Z,3.93
2018-11-04T01:52:49.891Z,4.03
2018-11-04T01:55:53.188Z,3.70
2018-11-04T01:58:56.379Z,3.70
2018-11-04T02:01:59.419Z,3.87
2018-11-04T02:05:02.510Z,3.77
2018-11-04T02:08:06.173Z,3.80
2018-11-04T02:11:09.271Z,3.57
2018-11-04T02:14:12.320Z,3.57
2018-11-04T02:17:15.364Z,3.57
2018-11-04T02:20:18.457Z,3.83
2018-11-04T02:23:21.554Z,3.73
2018-11-04T02:26:24.660Z,3.70
2018-11-04T02:29:27.729Z,3.30
2018-11-04T02:32:30.811Z,3.47
2018-11-04T02:35:33.938Z,3.50
2018-11-04T02:38:37.000Z,3.10
2018-11-04T02:41:40.080Z,3.50
2018-11-04T02:44:43.183Z,3.60
2018-11-04T02:47:46.231Z,3.23
2018-11-04T02:50:49.296Z,2.90
2018-11-04T02:53:52.405Z,3.37
2018-11-04T02:56:55.456Z,3.20
2018-11-04T02:59:58.508Z,3.40
2018-11-04T03:03:01.570Z,3.03
2018-11-04T03:06:04.631Z,3.20
2018-11-04T03:09:08.998Z,3.17
2018-11-04T03:12:12.051Z,2.97
2018-11-04T03:15:15.153Z,3.00
2018-11-04T03:18:18.196Z,2.90
2018-11-04T03:21:21.236Z,3.07
2018-11-04T03:24:24.276Z,2.77
2018-11-04T03:27:27.484Z,2.80
2018-11-04T03:30:30.655Z,2.83
2018-11-04T03:33:33.845Z,2.70
2018-11-04T03:36:36.910Z,3.37
2018-11-04T03:39:40.688Z,2.70
2018-11-04T03:42:43.832Z,2.70
2018-11-04T03:45:46.896Z,2.77
2018-11-04T03:48:49.990Z,2.53
2018-11-04T03:51:53.045Z,2.87
2018-11-04T03:54:56.925Z,3.23
2018-11-04T03:58:00.017Z,2.20
2018-11-04T04:01:03.120Z,2.50
2018-11-04T04:04:06.190Z,2.40
2018-11-04T04:07:09.251Z,2.67
2018-11-04T04:10:12.322Z,2.53
2018-11-04T04:13:15.416Z,2.47
2018-11-04T04:16:18.530Z,2.40
2018-11-04T04:19:21.672Z,2.17
2018-11-04T04:22:24.781Z,2.50
2018-11-04T04:25:27.828Z,2.33
2018-11-04T04:28:30.931Z,3.07
2018-11-04T04:31:33.995Z,2.57
2018-11-04T04:34:37.070Z,2.80
2018-11-04T04:37:40.592Z,2.40
2018-11-04T04:40:43.640Z,2.53
2018-11-04T04:43:47.602Z,2.47
2018-11-04T04:46:50.638Z,2.27
2018-11-04T04:49:53.693Z,2.23
2018-11-04T04:52:58.412Z,2.27
2018-11-04T04:56:01.544Z,2.30
2018-11-04T04:59:04.637Z,2.40
2018-11-04T05:02:07.705Z,2.43
2018-11-04T05:05:10.867Z,2.30
2018-11-04T05:08:13.906Z,2.10
2018-11-04T05:11:16.972Z,2.30
2018-11-04T05:14:20.025Z,2.13
2018-11-04T05:17:23.152Z,2.20
2018-11-04T05:20:26.277Z,2.13
2018-11-04T05:23:29.354Z,1.90
2018-11-04T05:26:32.399Z,1.73
2018-11-04T05:29:35.510Z,2.50
2018-11-04T05:32:38.576Z,2.00
2018-11-04T05:35:41.716Z,2.10
2018-11-04T05:38:44.816Z,1.70
2018-11-04T05:41:47.884Z,2.00
2018-11-04T05:44:50.917Z,2.30
2018-11-04T05:47:53.997Z,2.30
2018-11-04T05:50:57.103Z,2.40
2018-11-04T05:54:00.171Z,10.68
2018-11-04T05:57:03.350Z,9.68
2018-11-04T06:00:07.738Z,7.80
2018-11-04T06:03:10.808Z,6.60
2018-11-04T06:06:13.874Z,7.10
2018-11-04T06:09:16.967Z,6.30
2018-11-04T06:12:20.033Z,6.57
2018-11-04T06:15:23.071Z,5.73
2018-11-04T06:18:26.135Z,5.27
2018-11-04T06:21:29.280Z,5.03
2018-11-04T06:24:31.415Z,4.80
2018-11-04T06:27:34.441Z,4.60
2018-11-04T06:30:37.569Z,4.57
2018-11-04T06:33:40.712Z,3.77
2018-11-04T06:36:43.759Z,3.90
2018-11-04T06:39:46.794Z,4.10
2018-11-04T06:42:49.816Z,3.83
2018-11-04T06:45:52.951Z,4.43
2018-11-04T06:48:56.068Z,4.17
2018-11-04T06:51:59.095Z,5.23
2018-11-04T06:55:02.164Z,4.10
2018-11-04T06:58:05.835Z,4.23
2018-11-04T07:01:08.953Z,3.90
2018-11-04T07:04:22.223Z,3.90
2018-11-04T07:07:25.335Z,4.13
2018-11-04T07:10:28.528Z,3.73
2018-11-04T07:13:31.631Z,3.70
2018-11-04T07:16:35.667Z,3.17
2018-11-04T07:19:38.724Z,3.97
2018-11-04T07:22:41.823Z,3.80
2018-11-04T07:25:44.964Z,3.90
2018-11-04T07:28:48.014Z,4.17
2018-11-04T07:31:51.170Z,21.27
2018-11-04T07:34:54.222Z,18.50
2018-11-04T07:37:57.314Z,13.50
2018-11-04T07:41:00.363Z,10.33
2018-11-04T07:44:03.517Z,9.63
2018-11-04T07:47:06.615Z,8.67
2018-11-04T07:50:12.031Z,8.13
2018-11-04T07:53:15.110Z,7.60
2018-11-04T07:56:18.176Z,7.13
2018-11-04T07:59:21.247Z,7.80
2018-11-04T08:02:24.307Z,8.10
2018-11-04T08:05:27.397Z,13.77
2018-11-04T08:08:30.468Z,25.15
2018-11-04T08:11:33.732Z,18.70
2018-11-04T08:14:36.883Z,14.63
2018-11-04T08:17:40.320Z,12.95
2018-11-04T08:20:43.415Z,12.00
2018-11-04T08:23:46.517Z,11.13
2018-11-04T08:26:49.676Z,10.20
2018-11-04T08:29:52.984Z,9.77
2018-11-04T08:32:56.402Z,10.27
2018-11-04T08:35:59.520Z,9.60
2018-11-04T08:39:02.793Z,9.90
2018-11-04T08:42:06.590Z,9.20
2018-11-04T08:45:09.700Z,8.30
2018-11-04T08:48:12.853Z,7.90
2018-11-04T08:51:15.946Z,7.63
2018-11-04T08:54:19.304Z,7.57
2018-11-04T08:57:22.430Z,7.00
2018-11-04T09:00:25.554Z,6.00
2018-11-04T09:03:28.828Z,6.30
2018-11-04T09:06:32.052Z,6.10
2018-11-04T09:09:35.117Z,6.07
2018-11-04T09:12:38.214Z,6.40
2018-11-04T09:15:41.286Z,6.30
2018-11-04T09:18:44.418Z,6.77
2018-11-04T09:21:47.614Z,6.70
2018-11-04T09:24:58.625Z,6.07
2018-11-04T09:28:08.427Z,6.10
2018-11-04T09:31:11.870Z,6.83
2018-11-04T09:34:15.128Z,6.50
2018-11-04T09:37:18.497Z,7.00
2018-11-04T09:40:21.876Z,7.30
2018-11-04T09:43:25.265Z,6.77
2018-11-04T09:46:28.332Z,5.87
2018-11-04T09:49:31.920Z,6.50
2018-11-04T09:52:34.979Z,7.03
2018-11-04T09:55:40.341Z,7.20
2018-11-04T09:58:43.432Z,7.10
2018-11-04T10:01:46.512Z,6.70
2018-11-04T10:04:49.928Z,6.90
2018-11-04T10:07:52.968Z,6.73
2018-11-04T10:10:56.212Z,7.37
2018-11-04T10:13:59.755Z,7.27
2018-11-04T10:17:02.908Z,7.30
2018-11-04T10:20:07.288Z,7.20
2018-11-04T10:23:10.437Z,6.97
2018-11-04T10:26:13.566Z,6.57
2018-11-04T10:29:16.836Z,7.37
2018-11-04T10:32:20.232Z,7.43
2018-11-04T10:35:23.278Z,6.97
2018-11-04T10:38:26.472Z,6.90
2018-11-04T10:41:29.942Z,6.67
2018-11-04T10:44:33.283Z,6.47
2018-11-04T10:47:36.537Z,6.63
2018-11-04T10:50:39.900Z,7.13
2018-11-04T10:53:43.139Z,7.13
2018-11-04T10:56:46.983Z,6.87
2018-11-04T10:59:52.007Z,7.57
2018-11-04T11:02:55.116Z,6.57
2018-11-04T11:05:58.241Z,7.43
2018-11-04T11:09:01.302Z,7.13
2018-11-04T11:12:04.482Z,7.20
2018-11-04T11:15:08.405Z,6.60
2018-11-04T11:18:11.482Z,6.73
2018-11-04T11:21:14.564Z,7.10
2018-11-04T11:24:17.668Z,6.53
2018-11-04T11:27:20.719Z,6.43
2018-11-04T11:30:23.803Z,6.67
2018-11-04T11:33:26.860Z,6.80
2018-11-04T11:36:29.971Z,6.23
2018-11-04T11:39:33.140Z,6.50
2018-11-04T11:42:36.550Z,6.50
2018-11-04T11:45:39.630Z,6.07
2018-11-04T11:48:42.779Z,6.20
2018-11-04T11:51:46.009Z,6.70
2018-11-04T11:54:49.279Z,6.97
2018-11-04T11:57:52.593Z,6.23
2018-11-04T12:00:55.977Z,6.30
2018-11-04T12:03:59.473Z,6.00
2018-11-04T12:07:02.643Z,6.00
2018-11-04T12:10:07.389Z,6.43
2018-11-04T12:13:10.479Z,6.53
2018-11-04T12:16:13.635Z,6.53
2018-11-04T12:19:16.853Z,6.53
2018-11-04T12:22:19.972Z,6.33
2018-11-04T12:25:26.905Z,5.90
2018-11-04T12:28:30.388Z,6.60
2018-11-04T12:31:34.685Z,8.43
2018-11-04T12:34:37.752Z,7.90
2018-11-04T12:37:41.293Z,8.53
2018-11-04T12:40:44.385Z,7.53
2018-11-04T12:43:47.579Z,7.93
2018-11-04T12:46:50.636Z,7.20
2018-11-04T12:49:53.726Z,7.50
2018-11-04T12:52:56.792Z,7.37
2018-11-04T12:55:59.828Z,7.80
2018-11-04T12:59:02.996Z,7.30
2018-11-04T13:02:06.273Z,8.10
2018-11-04T13:05:10.248Z,7.70
2018-11-04T13:08:13.421Z,7.30
2018-11-04T13:11:16.621Z,7.67
2018-11-04T13:14:19.689Z,7.03
2018-11-04T13:17:22.784Z,7.60
2018-11-04T13:20:25.877Z,7.50
2018-11-04T13:23:29.107Z,9.40
2018-11-04T13:26:32.443Z,22.00
2018-11-04T13:29:35.508Z,110.40
2018-11-04T13:32:38.773Z,40.17
2018-11-04T13:35:41.840Z,23.47
2018-11-04T13:38:44.912Z,19.23
2018-11-04T13:41:48.007Z,17.87
2018-11-04T13:44:51.168Z,20.03
2018-11-04T13:47:54.246Z,17.32
2018-11-04T13:50:57.292Z,16.93
2018-11-04T13:54:00.437Z,16.27
2018-11-04T13:57:03.531Z,17.30
2018-11-04T14:00:09.385Z,14.67
2018-11-04T14:03:12.474Z,15.60
2018-11-04T14:06:16.688Z,16.93
2018-11-04T14:09:19.813Z,15.23
2018-11-04T14:12:22.969Z,14.97
2018-11-04T14:15:26.133Z,15.30
2018-11-04T14:18:29.311Z,14.73
2018-11-04T14:21:32.605Z,15.57
2018-11-04T14:24:35.697Z,11.97
2018-11-04T14:27:39.211Z,9.30
2018-11-04T14:30:42.304Z,8.10
2018-11-04T14:33:45.428Z,7.87
2018-11-04T14:36:48.560Z,7.73
2018-11-04T14:39:51.686Z,7.70
2018-11-04T14:42:54.808Z,7.70
2018-11-04T14:45:57.869Z,7.10
2018-11-04T14:49:00.968Z,7.63
2018-11-04T14:52:04.069Z,6.77
2018-11-04T14:55:07.343Z,7.37
2018-11-04T14:58:10.485Z,6.90
2018-11-04T15:01:13.609Z,6.87
2018-11-04T15:04:16.602Z,7.23
2018-11-04T15:07:19.644Z,7.30
2018-11-04T15:10:22.788Z,6.43
2018-11-04T15:13:25.898Z,7.17
2018-11-04T15:16:29.044Z,6.80
2018-11-04T15:19:32.229Z,7.30
2018-11-04T15:22:35.300Z,6.40
2018-11-04T15:25:38.346Z,6.43
2018-11-04T15:28:41.459Z,6.80
2018-11-04T15:31:44.583Z,6.40
2018-11-04T15:34:47.802Z,6.27
2018-11-04T15:37:50.753Z,6.40
2018-11-04T15:40:53.843Z,6.87
2018-11-04T15:43:56.896Z,6.43
2018-11-04T15:46:59.984Z,49.83
2018-11-04T15:50:03.047Z,34.77
2018-11-04T15:53:06.193Z,63.43
2018-11-04T15:56:09.315Z,64.97
2018-11-04T15:59:12.434Z,54.23
2018-11-04T16:02:15.588Z,49.03
2018-11-04T16:05:19.564Z,43.97
2018-11-04T16:08:22.566Z,40.27
2018-11-04T16:11:25.653Z,39.30
2018-11-04T16:14:28.868Z,38.00
2018-11-04T16:17:31.952Z,35.43
2018-11-04T16:20:35.066Z,16.13
2018-11-04T16:23:38.235Z,19.93
2018-11-04T16:26:41.484Z,18.63
2018-11-04T16:29:44.584Z,16.60
2018-11-04T16:32:48.677Z,16.73
2018-11-04T16:35:51.878Z,15.30
2018-11-04T16:38:54.959Z,14.00
2018-11-04T16:41:58.123Z,13.87
2018-11-04T16:45:01.300Z,14.03
2018-11-04T16:48:04.455Z,12.60
2018-11-04T16:51:07.539Z,12.27
2018-11-04T16:54:10.616Z,11.43
2018-11-04T16:57:13.719Z,11.27
2018-11-04T17:00:16.915Z,10.43
2018-11-04T17:03:20.047Z,10.47
2018-11-04T17:06:23.316Z,10.97
2018-11-04T17:09:26.469Z,11.17
2018-11-04T17:12:29.522Z,40.08
2018-11-04T17:15:32.688Z,33.73
2018-11-04T17:18:35.917Z,30.73
2018-11-04T17:21:39.023Z,28.63
2018-11-04T17:24:42.243Z,24.13
2018-11-04T17:27:45.372Z,14.10
2018-11-04T17:30:48.705Z,15.37
2018-11-04T17:33:53.844Z,14.60
2018-11-04T17:36:56.935Z,15.20
2018-11-04T17:40:00.120Z,15.20
2018-11-04T17:43:03.340Z,14.47
2018-11-04T17:46:06.671Z,71.70
2018-11-04T17:49:09.932Z,64.03
2018-11-04T17:52:15.027Z,74.90
2018-11-04T17:55:18.351Z,56.37
2018-11-04T17:58:21.553Z,50.97
2018-11-04T18:01:24.762Z,51.97
2018-11-04T18:04:28.003Z,48.13
2018-11-04T18:07:31.072Z,43.83
2018-11-04T18:10:34.135Z,39.03
2018-11-04T18:13:37.331Z,39.83
2018-11-04T18:16:40.366Z,37.60
2018-11-04T18:19:43.463Z,32.27
2018-11-04T18:22:46.552Z,33.45
2018-11-04T18:25:49.717Z,30.37
2018-11-04T18:28:52.903Z,28.87
2018-11-04T18:31:57.009Z,28.67
2018-11-04T18:35:00.181Z,24.87
2018-11-04T18:38:04.380Z,25.53
2018-11-04T18:41:07.586Z,24.37
2018-11-04T18:44:10.763Z,23.33
2018-11-04T18:47:13.941Z,21.67
2018-11-04T18:50:18.165Z,22.13
2018-11-04T18:53:21.320Z,21.27
2018-11-04T18:56:24.463Z,19.80
2018-11-04T18:59:27.646Z,18.33
2018-11-04T19:02:30.856Z,18.60
2018-11-04T19:05:34.366Z,17.93
2018-11-04T19:08:37.561Z,16.47
2018-11-04T19:11:40.740Z,15.70
2018-11-04T19:14:43.772Z,15.10
2018-11-04T19:17:46.963Z,15.17
2018-11-04T19:20:50.137Z,15.00
2018-11-04T19:23:54.276Z,14.30
2018-11-04T19:26:57.901Z,12.53
2018-11-04T19:30:01.067Z,13.77
2018-11-04T19:33:04.256Z,13.50
2018-11-04T19:36:07.466Z,12.77
2018-11-04T19:39:11.896Z,12.27
2018-11-04T19:42:14.991Z,12.87
2018-11-04T19:45:18.188Z,12.27
2018-11-04T19:48:21.506Z,11.23
2018-11-04T19:51:24.695Z,10.20
2018-11-04T19:54:27.865Z,10.43
2018-11-04T19:57:31.379Z,10.77
2018-11-04T20:00:34.608Z,10.70
2018-11-04T20:03:37.759Z,11.60
2018-11-04T20:06:40.981Z,25.60
2018-11-04T20:09:44.138Z,33.73
2018-11-04T20:12:53.752Z,38.17
2018-11-04T20:15:56.897Z,30.17
2018-11-04T20:19:05.555Z,28.00
2018-11-04T20:22:08.691Z,29.95
2018-11-04T20:25:17.295Z,28.37
2018-11-04T20:28:27.953Z,29.53
2018-11-04T20:31:36.576Z,28.20
2018-11-04T20:34:39.713Z,28.10
2018-11-04T20:37:43.203Z,29.00
2018-11-04T20:40:51.958Z,27.67
2018-11-04T20:43:55.290Z,17.20
2018-11-04T20:46:58.735Z,15.23
2018-11-04T20:50:07.251Z,15.07
2018-11-04T20:53:10.591Z,13.80
2018-11-04T20:56:19.113Z,13.70
2018-11-04T20:59:22.318Z,13.43
2018-11-04T21:02:25.749Z,13.53
2018-11-04T21:05:28.673Z,13.23
2018-11-04T21:08:32.108Z,12.73
2018-11-04T21:11:35.200Z,13.10
2018-11-04T21:14:38.353Z,12.83
2018-11-04T21:17:41.464Z,12.10
2018-11-04T21:20:44.644Z,12.53
2018-11-04T21:23:47.953Z,13.17
2018-11-04T21:26:51.485Z,12.77
2018-11-04T21:29:54.711Z,13.00
2018-11-04T21:32:58.189Z,12.47
2018-11-04T21:36:01.332Z,12.70
2018-11-04T21:39:05.807Z,11.90
2018-11-04T21:42:09.021Z,12.80
2018-11-04T21:45:13.191Z,12.83
2018-11-04T21:48:16.378Z,12.30
2018-11-04T21:51:19.490Z,19.62
2018-11-04T21:54:22.664Z,55.53
2018-11-04T21:57:25.867Z,53.60
2018-11-04T22:00:29.020Z,41.50
2018-11-04T22:03:32.341Z,38.73
2018-11-04T22:06:35.396Z,34.33
2018-11-04T22:09:38.536Z,33.33
2018-11-04T22:12:42.227Z,30.40
2018-11-04T22:15:45.397Z,28.97
2018-11-04T22:18:48.619Z,29.17
2018-11-04T22:21:51.812Z,27.97
2018-11-04T22:24:54.985Z,24.27
2018-11-04T22:27:58.128Z,24.00
2018-11-04T22:31:01.308Z,22.57
2018-11-04T22:34:04.520Z,21.47
2018-11-04T22:37:07.827Z,21.07
2018-11-04T22:40:11.788Z,20.60
2018-11-04T22:43:14.950Z,20.33
2018-11-04T22:46:18.054Z,19.60
2018-11-04T22:49:21.124Z,19.00
2018-11-04T22:52:24.255Z,18.97
2018-11-04T22:55:27.395Z,19.50
2018-11-04T22:58:30.482Z,18.53
2018-11-04T23:01:33.871Z,18.17
2018-11-04T23:04:42.128Z,17.92
2018-11-04T23:07:45.631Z,16.70
2018-11-04T23:10:48.774Z,16.77
2018-11-04T23:13:51.927Z,17.50
2018-11-04T23:16:55.085Z,16.50
2018-11-04T23:19:58.154Z,16.30
2018-11-04T23:23:02.540Z,16.87
2018-11-04T23:26:07.047Z,16.67
2018-11-04T23:29:10.265Z,15.67
2018-11-04T23:32:13.394Z,15.70
2018-11-04T23:35:19.133Z,15.53
2018-11-04T23:38:22.286Z,14.90
2018-11-04T23:41:25.537Z,14.97
2018-11-04T23:44:28.718Z,15.13
2018-11-04T23:47:32.134Z,14.53
2018-11-04T23:50:35.267Z,14.33
2018-11-04T23:53:38.792Z,15.47
2018-11-04T23:56:42.131Z,14.27
2018-11-04T23:59:45.301Z,14.77
